This is the latest recevied weather packets stored in our database for station/object WB0OCV. If no packets are shown the sender has not sent any weather packets the latest 10 day(s).
| Time | Temp. | Humidity | Pressure | Rain* | Wind** | Luminosity | Snow |
|---|---|---|---|---|---|---|---|
| 1778158953 | 9.44° C | 97% | 1010.2 hPa | 0 mm | - | 125 W/m² | - |
| 1778158652 | 9.44° C | 97% | 1010.1 hPa | 1.27 mm | - | 151 W/m² | - |
| 1778158349 | 9.44° C | 97% | 1010.4 hPa | 1.27 mm | - | 144 W/m² | - |
| 1778158046 | 8.89° C | 97% | 1010.8 hPa | 0 mm | - | 91 W/m² | - |
| 1778157742 | 8.89° C | 97% | 1010.5 hPa | 0 mm | - | 103 W/m² | - |
| 1778157441 | 9.44° C | 98% | 1010.6 hPa | 1.78 mm | - | 76 W/m² | - |
| 1778157138 | 8.89° C | 98% | 1010.8 hPa | 1.78 mm | - | 51 W/m² | - |
| 1778156833 | 8.89° C | 98% | 1010.5 hPa | 0 mm | - | 72 W/m² | - |
| 1778156529 | 8.89° C | 98% | 1010.7 hPa | 0 mm | - | 45 W/m² | - |
| 1778156225 | 8.89° C | 97% | 1010.5 hPa | 1.27 mm | - | 27 W/m² | - |
| 1778155921 | 8.89° C | 97% | 1010.2 hPa | 1.27 mm | - | 45 W/m² | - |
| 1778155617 | 8.89° C | 97% | 1010.1 hPa | 0 mm | - | 50 W/m² | - |
| 1778155315 | 8.89° C | 97% | 1010.3 hPa | 0 mm | - | 47 W/m² | - |
| 1778155011 | 9.44° C | 97% | 1010.5 hPa | 0 mm | - | 26 W/m² | - |
| 1778154706 | 9.44° C | 97% | 1010.5 hPa | 0 mm | - | 45 W/m² | - |
| 1778154402 | 9.44° C | 98% | 1010.2 hPa | 0 mm | - | 59 W/m² | - |
| 1778154100 | 9.44° C | 98% | 1010.2 hPa | 0 mm | - | 75 W/m² | - |
| 1778153797 | 9.44° C | 98% | 1010.4 hPa | 0 mm | - | 42 W/m² | - |
| 1778153494 | 9.44° C | 98% | 1010.5 hPa | 1.78 mm | - | 38 W/m² | - |
| 1778153192 | 10° C | 98% | 1010.7 hPa | 0 mm | - | 19 W/m² | - |
| 1778152888 | 10° C | 99% | 1010.7 hPa | 0 mm | - | 17 W/m² | - |
| 1778152586 | 10° C | 98% | 1010.4 hPa | 0 mm | - | 17 W/m² | - |
| 1778152282 | 10° C | 98% | 1009.8 hPa | 0 mm | - | 22 W/m² | - |
| 1778151978 | 10° C | 98% | 1009.5 hPa | 0 mm | - | 31 W/m² | - |
| 1778151675 | 10° C | 99% | 1009.3 hPa | 1.27 mm | - | 34 W/m² | - |
* Rain latest hour (hover to see other rain measurements)
** Current wind speed in m/s (hover to see current wind gust speed)